sensor_id;sensor_type;location;lat;lon;timestamp;P1;durP1;ratioP1;P2;durP2;ratioP2
53151;SDS011;39234;53.158;6.322;2023-06-04T00:00:46;10.48;;;4.68;;
53151;SDS011;39234;53.158;6.322;2023-06-04T00:03:11;10.70;;;4.90;;
53151;SDS011;39234;53.158;6.322;2023-06-04T00:05:37;12.48;;;4.82;;
53151;SDS011;39234;53.158;6.322;2023-06-04T00:08:03;9.85;;;4.90;;
53151;SDS011;39234;53.158;6.322;2023-06-04T00:10:29;10.93;;;4.65;;
53151;SDS011;39234;53.158;6.322;2023-06-04T00:12:56;9.93;;;4.50;;
53151;SDS011;39234;53.158;6.322;2023-06-04T00:15:22;10.30;;;4.30;;
53151;SDS011;39234;53.158;6.322;2023-06-04T00:17:47;10.48;;;4.60;;
53151;SDS011;39234;53.158;6.322;2023-06-04T00:20:13;11.90;;;4.13;;
53151;SDS011;39234;53.158;6.322;2023-06-04T00:22:39;8.80;;;4.00;;
53151;SDS011;39234;53.158;6.322;2023-06-04T00:25:07;8.15;;;3.80;;
53151;SDS011;39234;53.158;6.322;2023-06-04T00:27:34;9.70;;;4.38;;
53151;SDS011;39234;53.158;6.322;2023-06-04T00:30:00;12.80;;;4.28;;
53151;SDS011;39234;53.158;6.322;2023-06-04T00:32:26;13.55;;;4.10;;
53151;SDS011;39234;53.158;6.322;2023-06-04T00:34:53;7.47;;;3.70;;
53151;SDS011;39234;53.158;6.322;2023-06-04T00:37:23;8.48;;;4.78;;
53151;SDS011;39234;53.158;6.322;2023-06-04T00:39:50;11.68;;;4.57;;
53151;SDS011;39234;53.158;6.322;2023-06-04T00:42:16;11.10;;;4.43;;
53151;SDS011;39234;53.158;6.322;2023-06-04T00:44:42;8.73;;;4.25;;
53151;SDS011;39234;53.158;6.322;2023-06-04T00:47:12;11.68;;;4.75;;
53151;SDS011;39234;53.158;6.322;2023-06-04T00:49:38;11.68;;;5.78;;
53151;SDS011;39234;53.158;6.322;2023-06-04T00:52:04;11.35;;;4.30;;
53151;SDS011;39234;53.158;6.322;2023-06-04T00:54:30;11.40;;;4.97;;
53151;SDS011;39234;53.158;6.322;2023-06-04T00:56:59;8.93;;;4.00;;
53151;SDS011;39234;53.158;6.322;2023-06-04T00:59:24;7.38;;;3.75;;
53151;SDS011;39234;53.158;6.322;2023-06-04T01:04:34;10.18;;;4.15;;
53151;SDS011;39234;53.158;6.322;2023-06-04T01:07:04;9.88;;;4.07;;
53151;SDS011;39234;53.158;6.322;2023-06-04T01:09:33;8.02;;;3.45;;
53151;SDS011;39234;53.158;6.322;2023-06-04T01:12:03;7.93;;;4.10;;
53151;SDS011;39234;53.158;6.322;2023-06-04T01:14:29;6.05;;;3.55;;
53151;SDS011;39234;53.158;6.322;2023-06-04T01:16:59;6.97;;;3.05;;
53151;SDS011;39234;53.158;6.322;2023-06-04T01:22:10;7.25;;;3.88;;
53151;SDS011;39234;53.158;6.322;2023-06-04T01:24:45;10.73;;;4.88;;
53151;SDS011;39234;53.158;6.322;2023-06-04T01:27:20;6.53;;;4.10;;
53151;SDS011;39234;53.158;6.322;2023-06-04T01:29:47;10.20;;;3.88;;
53151;SDS011;39234;53.158;6.322;2023-06-04T01:32:15;9.27;;;3.95;;
53151;SDS011;39234;53.158;6.322;2023-06-04T01:34:45;9.95;;;4.45;;
53151;SDS011;39234;53.158;6.322;2023-06-04T01:37:11;8.68;;;4.82;;
53151;SDS011;39234;53.158;6.322;2023-06-04T01:39:38;15.88;;;5.45;;
53151;SDS011;39234;53.158;6.322;2023-06-04T01:42:04;12.13;;;5.47;;
53151;SDS011;39234;53.158;6.322;2023-06-04T01:44:30;12.85;;;4.60;;
53151;SDS011;39234;53.158;6.322;2023-06-04T01:46:56;10.15;;;4.60;;
53151;SDS011;39234;53.158;6.322;2023-06-04T01:49:21;12.77;;;4.90;;
53151;SDS011;39234;53.158;6.322;2023-06-04T01:51:47;9.00;;;4.00;;
53151;SDS011;39234;53.158;6.322;2023-06-04T01:54:13;6.68;;;4.00;;
53151;SDS011;39234;53.158;6.322;2023-06-04T01:56:38;7.18;;;3.80;;
53151;SDS011;39234;53.158;6.322;2023-06-04T01:59:04;7.90;;;4.40;;
53151;SDS011;39234;53.158;6.322;2023-06-04T02:01:30;9.23;;;4.47;;
53151;SDS011;39234;53.158;6.322;2023-06-04T02:03:56;10.38;;;4.40;;
53151;SDS011;39234;53.158;6.322;2023-06-04T02:06:21;8.38;;;3.85;;
53151;SDS011;39234;53.158;6.322;2023-06-04T02:08:49;6.45;;;3.40;;
53151;SDS011;39234;53.158;6.322;2023-06-04T02:11:15;5.43;;;2.97;;
53151;SDS011;39234;53.158;6.322;2023-06-04T02:13:41;6.78;;;3.45;;
53151;SDS011;39234;53.158;6.322;2023-06-04T02:16:07;5.18;;;2.90;;
53151;SDS011;39234;53.158;6.322;2023-06-04T02:18:32;5.63;;;3.13;;
53151;SDS011;39234;53.158;6.322;2023-06-04T02:20:58;5.90;;;3.00;;
53151;SDS011;39234;53.158;6.322;2023-06-04T02:23:24;6.53;;;2.92;;
53151;SDS011;39234;53.158;6.322;2023-06-04T02:25:50;4.40;;;2.45;;
53151;SDS011;39234;53.158;6.322;2023-06-04T02:28:16;6.50;;;2.60;;
53151;SDS011;39234;53.158;6.322;2023-06-04T02:30:43;4.15;;;2.40;;
53151;SDS011;39234;53.158;6.322;2023-06-04T02:33:10;6.72;;;2.50;;
53151;SDS011;39234;53.158;6.322;2023-06-04T02:35:35;3.72;;;2.10;;
53151;SDS011;39234;53.158;6.322;2023-06-04T02:38:02;5.93;;;2.42;;
53151;SDS011;39234;53.158;6.322;2023-06-04T02:40:28;5.38;;;2.28;;
53151;SDS011;39234;53.158;6.322;2023-06-04T02:42:54;4.72;;;2.15;;
53151;SDS011;39234;53.158;6.322;2023-06-04T02:45:21;4.55;;;2.00;;
53151;SDS011;39234;53.158;6.322;2023-06-04T02:47:48;4.53;;;1.88;;
53151;SDS011;39234;53.158;6.322;2023-06-04T02:50:14;4.82;;;1.90;;
53151;SDS011;39234;53.158;6.322;2023-06-04T02:52:42;5.13;;;2.17;;
53151;SDS011;39234;53.158;6.322;2023-06-04T02:55:08;5.88;;;2.60;;
53151;SDS011;39234;53.158;6.322;2023-06-04T02:57:38;4.93;;;2.25;;
53151;SDS011;39234;53.158;6.322;2023-06-04T03:00:06;5.63;;;2.45;;
53151;SDS011;39234;53.158;6.322;2023-06-04T03:02:42;6.10;;;2.60;;
53151;SDS011;39234;53.158;6.322;2023-06-04T03:05:09;5.82;;;3.15;;
53151;SDS011;39234;53.158;6.322;2023-06-04T03:07:36;6.07;;;3.08;;
53151;SDS011;39234;53.158;6.322;2023-06-04T03:10:02;8.73;;;2.90;;
53151;SDS011;39234;53.158;6.322;2023-06-04T03:12:29;5.28;;;2.50;;
53151;SDS011;39234;53.158;6.322;2023-06-04T03:14:55;5.65;;;2.70;;
53151;SDS011;39234;53.158;6.322;2023-06-04T03:17:21;5.47;;;3.30;;
53151;SDS011;39234;53.158;6.322;2023-06-04T03:19:47;6.70;;;2.92;;
53151;SDS011;39234;53.158;6.322;2023-06-04T03:22:13;6.15;;;2.80;;
53151;SDS011;39234;53.158;6.322;2023-06-04T03:24:40;5.93;;;3.10;;
53151;SDS011;39234;53.158;6.322;2023-06-04T03:27:07;9.18;;;3.10;;
53151;SDS011;39234;53.158;6.322;2023-06-04T03:29:34;5.45;;;2.85;;
53151;SDS011;39234;53.158;6.322;2023-06-04T03:32:01;6.32;;;3.35;;
53151;SDS011;39234;53.158;6.322;2023-06-04T03:34:27;7.65;;;3.33;;
53151;SDS011;39234;53.158;6.322;2023-06-04T03:36:56;7.18;;;2.88;;
53151;SDS011;39234;53.158;6.322;2023-06-04T03:39:22;6.18;;;3.35;;
53151;SDS011;39234;53.158;6.322;2023-06-04T03:41:48;6.70;;;3.88;;
53151;SDS011;39234;53.158;6.322;2023-06-04T03:44:14;5.47;;;2.65;;
53151;SDS011;39234;53.158;6.322;2023-06-04T03:46:41;5.60;;;2.60;;
53151;SDS011;39234;53.158;6.322;2023-06-04T03:49:08;7.57;;;2.53;;
53151;SDS011;39234;53.158;6.322;2023-06-04T03:51:35;6.53;;;2.63;;
53151;SDS011;39234;53.158;6.322;2023-06-04T03:54:01;6.82;;;3.08;;
53151;SDS011;39234;53.158;6.322;2023-06-04T03:56:27;4.68;;;2.50;;
53151;SDS011;39234;53.158;6.322;2023-06-04T03:58:53;7.32;;;3.50;;
53151;SDS011;39234;53.158;6.322;2023-06-04T04:01:19;5.72;;;2.97;;
53151;SDS011;39234;53.158;6.322;2023-06-04T04:03:45;10.68;;;4.20;;
53151;SDS011;39234;53.158;6.322;2023-06-04T04:06:14;7.82;;;4.35;;
53151;SDS011;39234;53.158;6.322;2023-06-04T04:08:41;9.13;;;4.13;;
53151;SDS011;39234;53.158;6.322;2023-06-04T04:11:13;8.13;;;4.60;;
53151;SDS011;39234;53.158;6.322;2023-06-04T04:13:39;7.97;;;4.55;;
53151;SDS011;39234;53.158;6.322;2023-06-04T04:16:05;7.05;;;4.72;;
53151;SDS011;39234;53.158;6.322;2023-06-04T04:18:34;8.20;;;4.60;;
53151;SDS011;39234;53.158;6.322;2023-06-04T04:21:01;7.70;;;5.20;;
53151;SDS011;39234;53.158;6.322;2023-06-04T04:23:28;8.40;;;5.97;;
53151;SDS011;39234;53.158;6.322;2023-06-04T04:25:55;10.38;;;6.53;;
53151;SDS011;39234;53.158;6.322;2023-06-04T04:28:24;12.57;;;6.72;;
53151;SDS011;39234;53.158;6.322;2023-06-04T04:30:53;11.77;;;6.38;;
53151;SDS011;39234;53.158;6.322;2023-06-04T04:33:21;10.48;;;6.75;;
53151;SDS011;39234;53.158;6.322;2023-06-04T04:35:49;9.52;;;5.50;;
53151;SDS011;39234;53.158;6.322;2023-06-04T04:38:15;7.20;;;5.18;;
53151;SDS011;39234;53.158;6.322;2023-06-04T04:40:44;14.07;;;6.80;;
53151;SDS011;39234;53.158;6.322;2023-06-04T04:43:13;13.20;;;7.22;;
53151;SDS011;39234;53.158;6.322;2023-06-04T04:45:39;11.55;;;6.95;;
53151;SDS011;39234;53.158;6.322;2023-06-04T04:48:04;17.63;;;7.65;;
53151;SDS011;39234;53.158;6.322;2023-06-04T04:50:30;19.35;;;8.05;;
53151;SDS011;39234;53.158;6.322;2023-06-04T04:52:57;14.30;;;7.32;;
53151;SDS011;39234;53.158;6.322;2023-06-04T04:55:23;13.60;;;7.82;;
53151;SDS011;39234;53.158;6.322;2023-06-04T04:57:49;12.20;;;7.20;;
53151;SDS011;39234;53.158;6.322;2023-06-04T05:00:15;15.05;;;8.02;;
53151;SDS011;39234;53.158;6.322;2023-06-04T05:02:42;13.68;;;7.32;;
53151;SDS011;39234;53.158;6.322;2023-06-04T05:05:08;15.00;;;7.80;;
53151;SDS011;39234;53.158;6.322;2023-06-04T05:07:35;15.80;;;8.30;;
53151;SDS011;39234;53.158;6.322;2023-06-04T05:10:01;13.88;;;8.40;;
53151;SDS011;39234;53.158;6.322;2023-06-04T05:12:29;11.13;;;7.18;;
53151;SDS011;39234;53.158;6.322;2023-06-04T05:14:56;15.80;;;7.97;;
53151;SDS011;39234;53.158;6.322;2023-06-04T05:17:21;12.07;;;7.43;;
53151;SDS011;39234;53.158;6.322;2023-06-04T05:19:55;14.80;;;7.90;;
53151;SDS011;39234;53.158;6.322;2023-06-04T05:22:30;14.52;;;8.48;;
53151;SDS011;39234;53.158;6.322;2023-06-04T05:24:57;15.25;;;8.85;;
53151;SDS011;39234;53.158;6.322;2023-06-04T05:27:24;15.43;;;8.57;;
53151;SDS011;39234;53.158;6.322;2023-06-04T05:29:51;17.85;;;7.80;;
53151;SDS011;39234;53.158;6.322;2023-06-04T05:32:16;17.45;;;7.90;;
53151;SDS011;39234;53.158;6.322;2023-06-04T05:34:42;15.77;;;7.57;;
53151;SDS011;39234;53.158;6.322;2023-06-04T05:37:08;12.90;;;7.05;;
53151;SDS011;39234;53.158;6.322;2023-06-04T05:39:34;13.27;;;6.93;;
53151;SDS011;39234;53.158;6.322;2023-06-04T05:42:00;14.95;;;6.82;;
53151;SDS011;39234;53.158;6.322;2023-06-04T05:44:26;15.48;;;8.70;;
53151;SDS011;39234;53.158;6.322;2023-06-04T05:46:52;14.30;;;6.15;;
53151;SDS011;39234;53.158;6.322;2023-06-04T05:49:18;12.90;;;5.95;;
53151;SDS011;39234;53.158;6.322;2023-06-04T05:51:44;17.35;;;6.38;;
53151;SDS011;39234;53.158;6.322;2023-06-04T05:54:10;13.50;;;6.40;;
53151;SDS011;39234;53.158;6.322;2023-06-04T05:56:36;14.00;;;5.70;;
53151;SDS011;39234;53.158;6.322;2023-06-04T05:59:02;12.88;;;5.65;;
53151;SDS011;39234;53.158;6.322;2023-06-04T06:01:28;15.50;;;6.40;;
53151;SDS011;39234;53.158;6.322;2023-06-04T06:03:54;16.23;;;5.80;;
53151;SDS011;39234;53.158;6.322;2023-06-04T06:06:20;13.00;;;6.20;;
53151;SDS011;39234;53.158;6.322;2023-06-04T06:08:46;18.13;;;6.57;;
53151;SDS011;39234;53.158;6.322;2023-06-04T06:11:11;13.13;;;5.40;;
53151;SDS011;39234;53.158;6.322;2023-06-04T06:13:37;14.75;;;5.05;;
53151;SDS011;39234;53.158;6.322;2023-06-04T06:16:03;14.32;;;4.95;;
53151;SDS011;39234;53.158;6.322;2023-06-04T06:18:29;13.07;;;4.80;;
53151;SDS011;39234;53.158;6.322;2023-06-04T06:20:55;15.48;;;4.53;;
53151;SDS011;39234;53.158;6.322;2023-06-04T06:23:21;12.52;;;4.65;;
53151;SDS011;39234;53.158;6.322;2023-06-04T06:25:49;9.27;;;3.65;;
53151;SDS011;39234;53.158;6.322;2023-06-04T06:28:17;16.55;;;4.40;;
53151;SDS011;39234;53.158;6.322;2023-06-04T06:30:43;11.25;;;3.75;;
53151;SDS011;39234;53.158;6.322;2023-06-04T06:33:09;15.60;;;4.65;;
53151;SDS011;39234;53.158;6.322;2023-06-04T06:35:35;15.27;;;5.10;;
53151;SDS011;39234;53.158;6.322;2023-06-04T06:38:01;11.90;;;3.50;;
53151;SDS011;39234;53.158;6.322;2023-06-04T06:40:27;9.75;;;3.08;;
53151;SDS011;39234;53.158;6.322;2023-06-04T06:42:55;12.20;;;3.05;;
53151;SDS011;39234;53.158;6.322;2023-06-04T06:45:21;11.63;;;3.70;;
53151;SDS011;39234;53.158;6.322;2023-06-04T06:47:47;11.68;;;3.00;;
53151;SDS011;39234;53.158;6.322;2023-06-04T06:50:13;10.57;;;2.60;;
53151;SDS011;39234;53.158;6.322;2023-06-04T06:52:39;8.38;;;2.70;;
53151;SDS011;39234;53.158;6.322;2023-06-04T06:55:05;12.10;;;2.92;;
53151;SDS011;39234;53.158;6.322;2023-06-04T06:57:31;11.38;;;2.50;;
53151;SDS011;39234;53.158;6.322;2023-06-04T06:59:58;9.82;;;2.80;;
53151;SDS011;39234;53.158;6.322;2023-06-04T07:02:24;12.85;;;2.70;;
53151;SDS011;39234;53.158;6.322;2023-06-04T07:04:50;9.52;;;2.35;;
53151;SDS011;39234;53.158;6.322;2023-06-04T07:07:16;9.82;;;2.80;;
53151;SDS011;39234;53.158;6.322;2023-06-04T07:09:42;10.02;;;2.78;;
53151;SDS011;39234;53.158;6.322;2023-06-04T07:12:07;9.90;;;2.85;;
53151;SDS011;39234;53.158;6.322;2023-06-04T07:14:33;9.77;;;2.65;;
53151;SDS011;39234;53.158;6.322;2023-06-04T07:16:59;13.45;;;3.22;;
53151;SDS011;39234;53.158;6.322;2023-06-04T07:19:25;7.95;;;2.30;;
53151;SDS011;39234;53.158;6.322;2023-06-04T07:21:53;8.00;;;2.00;;
53151;SDS011;39234;53.158;6.322;2023-06-04T07:24:20;11.48;;;2.47;;
53151;SDS011;39234;53.158;6.322;2023-06-04T07:26:47;10.60;;;2.90;;
53151;SDS011;39234;53.158;6.322;2023-06-04T07:29:13;7.35;;;2.75;;
53151;SDS011;39234;53.158;6.322;2023-06-04T07:31:40;8.63;;;2.65;;
53151;SDS011;39234;53.158;6.322;2023-06-04T07:34:06;8.93;;;2.70;;
53151;SDS011;39234;53.158;6.322;2023-06-04T07:36:32;9.02;;;3.17;;
53151;SDS011;39234;53.158;6.322;2023-06-04T07:38:58;9.63;;;2.65;;
53151;SDS011;39234;53.158;6.322;2023-06-04T07:41:25;8.52;;;2.30;;
53151;SDS011;39234;53.158;6.322;2023-06-04T07:43:53;9.55;;;2.55;;
53151;SDS011;39234;53.158;6.322;2023-06-04T07:46:19;10.38;;;2.80;;
53151;SDS011;39234;53.158;6.322;2023-06-04T07:48:45;7.72;;;2.72;;
53151;SDS011;39234;53.158;6.322;2023-06-04T07:51:12;10.15;;;2.17;;
53151;SDS011;39234;53.158;6.322;2023-06-04T07:53:38;10.70;;;2.55;;
53151;SDS011;39234;53.158;6.322;2023-06-04T07:56:05;6.30;;;2.13;;
53151;SDS011;39234;53.158;6.322;2023-06-04T07:58:31;10.00;;;2.35;;
53151;SDS011;39234;53.158;6.322;2023-06-04T08:00:57;6.15;;;2.17;;
53151;SDS011;39234;53.158;6.322;2023-06-04T08:03:22;5.32;;;2.00;;
53151;SDS011;39234;53.158;6.322;2023-06-04T08:05:49;7.20;;;2.53;;
53151;SDS011;39234;53.158;6.322;2023-06-04T08:08:15;7.80;;;2.42;;
53151;SDS011;39234;53.158;6.322;2023-06-04T08:10:41;7.13;;;2.25;;
53151;SDS011;39234;53.158;6.322;2023-06-04T08:13:07;7.78;;;2.20;;
53151;SDS011;39234;53.158;6.322;2023-06-04T08:15:34;12.80;;;3.80;;
53151;SDS011;39234;53.158;6.322;2023-06-04T08:18:00;6.43;;;2.10;;
53151;SDS011;39234;53.158;6.322;2023-06-04T08:20:26;7.57;;;2.17;;
53151;SDS011;39234;53.158;6.322;2023-06-04T08:22:52;6.65;;;1.90;;
53151;SDS011;39234;53.158;6.322;2023-06-04T08:25:17;8.20;;;2.38;;
53151;SDS011;39234;53.158;6.322;2023-06-04T08:27:43;9.38;;;2.70;;
53151;SDS011;39234;53.158;6.322;2023-06-04T08:30:09;5.13;;;1.75;;
53151;SDS011;39234;53.158;6.322;2023-06-04T08:32:35;5.72;;;1.95;;
53151;SDS011;39234;53.158;6.322;2023-06-04T08:35:01;6.22;;;2.28;;
53151;SDS011;39234;53.158;6.322;2023-06-04T08:37:27;6.30;;;1.88;;
53151;SDS011;39234;53.158;6.322;2023-06-04T08:39:53;6.63;;;1.75;;
53151;SDS011;39234;53.158;6.322;2023-06-04T08:42:22;5.88;;;2.08;;
53151;SDS011;39234;53.158;6.322;2023-06-04T08:44:51;5.00;;;1.80;;
53151;SDS011;39234;53.158;6.322;2023-06-04T08:47:20;8.88;;;2.35;;
53151;SDS011;39234;53.158;6.322;2023-06-04T08:49:51;6.25;;;1.60;;
53151;SDS011;39234;53.158;6.322;2023-06-04T08:52:20;7.50;;;1.90;;
53151;SDS011;39234;53.158;6.322;2023-06-04T08:54:49;8.23;;;1.75;;
53151;SDS011;39234;53.158;6.322;2023-06-04T08:57:17;49.90;;;5.32;;
53151;SDS011;39234;53.158;6.322;2023-06-04T08:59:44;14.20;;;2.60;;
53151;SDS011;39234;53.158;6.322;2023-06-04T09:02:12;10.75;;;2.13;;
53151;SDS011;39234;53.158;6.322;2023-06-04T09:04:39;7.03;;;2.03;;
53151;SDS011;39234;53.158;6.322;2023-06-04T09:07:05;13.93;;;3.03;;
53151;SDS011;39234;53.158;6.322;2023-06-04T09:09:35;5.97;;;2.05;;
53151;SDS011;39234;53.158;6.322;2023-06-04T09:12:03;6.93;;;1.90;;
53151;SDS011;39234;53.158;6.322;2023-06-04T09:14:34;5.28;;;1.67;;
53151;SDS011;39234;53.158;6.322;2023-06-04T09:16:59;6.22;;;1.88;;
53151;SDS011;39234;53.158;6.322;2023-06-04T09:19:25;6.45;;;1.90;;
53151;SDS011;39234;53.158;6.322;2023-06-04T09:21:51;6.15;;;2.20;;
53151;SDS011;39234;53.158;6.322;2023-06-04T09:24:20;7.30;;;2.28;;
53151;SDS011;39234;53.158;6.322;2023-06-04T09:26:47;6.65;;;2.10;;
53151;SDS011;39234;53.158;6.322;2023-06-04T09:29:14;5.53;;;1.55;;
53151;SDS011;39234;53.158;6.322;2023-06-04T09:31:40;4.57;;;1.63;;
53151;SDS011;39234;53.158;6.322;2023-06-04T09:34:06;6.95;;;1.92;;
53151;SDS011;39234;53.158;6.322;2023-06-04T09:36:33;5.25;;;1.73;;
53151;SDS011;39234;53.158;6.322;2023-06-04T09:39:00;4.03;;;1.50;;
53151;SDS011;39234;53.158;6.322;2023-06-04T09:41:28;3.53;;;1.40;;
53151;SDS011;39234;53.158;6.322;2023-06-04T09:44:01;4.13;;;1.42;;
53151;SDS011;39234;53.158;6.322;2023-06-04T09:46:28;5.43;;;1.60;;
53151;SDS011;39234;53.158;6.322;2023-06-04T09:49:01;7.78;;;2.55;;
53151;SDS011;39234;53.158;6.322;2023-06-04T09:51:28;3.60;;;1.42;;
53151;SDS011;39234;53.158;6.322;2023-06-04T09:54:00;4.43;;;1.30;;
53151;SDS011;39234;53.158;6.322;2023-06-04T09:56:28;7.18;;;1.88;;
53151;SDS011;39234;53.158;6.322;2023-06-04T09:58:55;5.43;;;1.38;;
53151;SDS011;39234;53.158;6.322;2023-06-04T10:01:26;5.90;;;1.83;;
53151;SDS011;39234;53.158;6.322;2023-06-04T10:03:53;7.45;;;2.15;;
53151;SDS011;39234;53.158;6.322;2023-06-04T10:06:21;4.38;;;1.65;;
53151;SDS011;39234;53.158;6.322;2023-06-04T10:08:49;7.55;;;1.23;;
53151;SDS011;39234;53.158;6.322;2023-06-04T10:11:23;6.60;;;1.80;;
53151;SDS011;39234;53.158;6.322;2023-06-04T10:14:02;4.38;;;1.50;;
53151;SDS011;39234;53.158;6.322;2023-06-04T10:16:32;5.47;;;1.73;;
53151;SDS011;39234;53.158;6.322;2023-06-04T10:18:58;7.93;;;2.03;;
53151;SDS011;39234;53.158;6.322;2023-06-04T10:21:26;4.93;;;1.45;;
53151;SDS011;39234;53.158;6.322;2023-06-04T10:23:51;5.63;;;1.90;;
53151;SDS011;39234;53.158;6.322;2023-06-04T10:26:17;4.70;;;1.83;;
53151;SDS011;39234;53.158;6.322;2023-06-04T10:28:43;3.78;;;1.48;;
53151;SDS011;39234;53.158;6.322;2023-06-04T10:31:10;9.63;;;1.88;;
53151;SDS011;39234;53.158;6.322;2023-06-04T10:33:36;6.22;;;1.75;;
53151;SDS011;39234;53.158;6.322;2023-06-04T10:36:15;5.35;;;1.67;;
53151;SDS011;39234;53.158;6.322;2023-06-04T10:38:52;5.88;;;1.50;;
53151;SDS011;39234;53.158;6.322;2023-06-04T10:41:20;3.83;;;1.60;;
53151;SDS011;39234;53.158;6.322;2023-06-04T10:43:48;6.15;;;1.80;;
53151;SDS011;39234;53.158;6.322;2023-06-04T10:46:15;8.18;;;1.30;;
53151;SDS011;39234;53.158;6.322;2023-06-04T10:48:53;5.45;;;1.30;;
53151;SDS011;39234;53.158;6.322;2023-06-04T10:51:41;6.35;;;1.80;;
53151;SDS011;39234;53.158;6.322;2023-06-04T10:54:06;3.58;;;1.30;;
53151;SDS011;39234;53.158;6.322;2023-06-04T10:56:33;5.00;;;1.50;;
53151;SDS011;39234;53.158;6.322;2023-06-04T10:59:15;3.47;;;1.27;;
53151;SDS011;39234;53.158;6.322;2023-06-04T11:01:42;4.55;;;1.15;;
53151;SDS011;39234;53.158;6.322;2023-06-04T11:04:18;4.43;;;1.55;;
53151;SDS011;39234;53.158;6.322;2023-06-04T11:06:45;8.45;;;1.70;;
53151;SDS011;39234;53.158;6.322;2023-06-04T11:09:13;4.18;;;1.35;;
53151;SDS011;39234;53.158;6.322;2023-06-04T11:11:43;3.33;;;1.35;;
53151;SDS011;39234;53.158;6.322;2023-06-04T11:14:09;4.57;;;1.48;;
53151;SDS011;39234;53.158;6.322;2023-06-04T11:16:40;4.75;;;1.48;;
53151;SDS011;39234;53.158;6.322;2023-06-04T11:19:06;5.70;;;1.70;;
53151;SDS011;39234;53.158;6.322;2023-06-04T11:21:33;6.65;;;1.42;;
53151;SDS011;39234;53.158;6.322;2023-06-04T11:24:01;4.35;;;1.60;;
53151;SDS011;39234;53.158;6.322;2023-06-04T11:26:31;3.40;;;1.30;;
53151;SDS011;39234;53.158;6.322;2023-06-04T11:28:58;3.50;;;1.30;;
53151;SDS011;39234;53.158;6.322;2023-06-04T11:31:24;6.85;;;1.77;;
53151;SDS011;39234;53.158;6.322;2023-06-04T11:33:50;5.43;;;1.50;;
53151;SDS011;39234;53.158;6.322;2023-06-04T11:36:28;5.68;;;2.05;;
53151;SDS011;39234;53.158;6.322;2023-06-04T11:41:32;6.05;;;2.08;;
53151;SDS011;39234;53.158;6.322;2023-06-04T11:44:04;10.57;;;2.50;;
53151;SDS011;39234;53.158;6.322;2023-06-04T11:46:49;6.45;;;2.20;;
53151;SDS011;39234;53.158;6.322;2023-06-04T11:49:17;9.65;;;2.33;;
53151;SDS011;39234;53.158;6.322;2023-06-04T11:51:51;6.50;;;2.40;;
53151;SDS011;39234;53.158;6.322;2023-06-04T11:54:18;6.80;;;2.42;;
53151;SDS011;39234;53.158;6.322;2023-06-04T11:56:45;6.13;;;2.20;;
53151;SDS011;39234;53.158;6.322;2023-06-04T11:59:14;5.93;;;2.17;;
53151;SDS011;39234;53.158;6.322;2023-06-04T12:01:41;4.85;;;1.75;;
53151;SDS011;39234;53.158;6.322;2023-06-04T12:04:15;6.10;;;1.90;;
53151;SDS011;39234;53.158;6.322;2023-06-04T12:09:23;7.22;;;3.30;;
53151;SDS011;39234;53.158;6.322;2023-06-04T12:11:57;5.97;;;2.00;;
53151;SDS011;39234;53.158;6.322;2023-06-04T12:14:24;4.80;;;2.03;;
53151;SDS011;39234;53.158;6.322;2023-06-04T12:16:57;5.65;;;2.00;;
53151;SDS011;39234;53.158;6.322;2023-06-04T12:19:27;5.55;;;1.83;;
53151;SDS011;39234;53.158;6.322;2023-06-04T12:21:59;4.10;;;1.48;;
53151;SDS011;39234;53.158;6.322;2023-06-04T12:24:30;5.65;;;1.70;;
53151;SDS011;39234;53.158;6.322;2023-06-04T12:27:04;5.32;;;1.60;;
53151;SDS011;39234;53.158;6.322;2023-06-04T12:29:31;5.97;;;1.77;;
53151;SDS011;39234;53.158;6.322;2023-06-04T12:37:07;7.80;;;2.40;;
53151;SDS011;39234;53.158;6.322;2023-06-04T12:39:34;7.68;;;2.30;;
53151;SDS011;39234;53.158;6.322;2023-06-04T12:42:04;7.88;;;2.08;;
53151;SDS011;39234;53.158;6.322;2023-06-04T12:44:32;5.82;;;1.70;;
53151;SDS011;39234;53.158;6.322;2023-06-04T12:46:57;6.68;;;1.85;;
53151;SDS011;39234;53.158;6.322;2023-06-04T12:49:23;5.20;;;1.60;;
53151;SDS011;39234;53.158;6.322;2023-06-04T12:51:49;5.15;;;1.80;;
53151;SDS011;39234;53.158;6.322;2023-06-04T12:54:15;3.65;;;1.30;;
53151;SDS011;39234;53.158;6.322;2023-06-04T12:56:41;5.45;;;1.80;;
53151;SDS011;39234;53.158;6.322;2023-06-04T12:59:11;5.82;;;1.60;;
53151;SDS011;39234;53.158;6.322;2023-06-04T13:01:41;7.10;;;1.80;;
53151;SDS011;39234;53.158;6.322;2023-06-04T13:04:07;5.80;;;1.73;;
53151;SDS011;39234;53.158;6.322;2023-06-04T13:06:33;6.57;;;1.73;;
53151;SDS011;39234;53.158;6.322;2023-06-04T13:09:01;6.75;;;1.50;;
53151;SDS011;39234;53.158;6.322;2023-06-04T13:11:28;7.13;;;1.73;;
53151;SDS011;39234;53.158;6.322;2023-06-04T13:13:54;8.38;;;1.92;;
53151;SDS011;39234;53.158;6.322;2023-06-04T13:16:19;5.18;;;1.55;;
53151;SDS011;39234;53.158;6.322;2023-06-04T13:18:45;7.10;;;2.05;;
53151;SDS011;39234;53.158;6.322;2023-06-04T13:21:11;6.75;;;1.42;;
53151;SDS011;39234;53.158;6.322;2023-06-04T13:23:37;6.88;;;1.48;;
53151;SDS011;39234;53.158;6.322;2023-06-04T13:26:03;5.25;;;1.25;;
53151;SDS011;39234;53.158;6.322;2023-06-04T13:28:28;8.57;;;2.03;;
53151;SDS011;39234;53.158;6.322;2023-06-04T13:30:55;5.22;;;2.13;;
53151;SDS011;39234;53.158;6.322;2023-06-04T13:33:21;4.32;;;1.75;;
53151;SDS011;39234;53.158;6.322;2023-06-04T13:35:46;5.72;;;1.85;;
53151;SDS011;39234;53.158;6.322;2023-06-04T13:38:12;6.60;;;1.63;;
53151;SDS011;39234;53.158;6.322;2023-06-04T13:40:38;5.75;;;1.88;;
53151;SDS011;39234;53.158;6.322;2023-06-04T13:43:04;9.00;;;2.00;;
53151;SDS011;39234;53.158;6.322;2023-06-04T13:45:32;8.40;;;2.13;;
53151;SDS011;39234;53.158;6.322;2023-06-04T13:47:58;5.18;;;1.55;;
53151;SDS011;39234;53.158;6.322;2023-06-04T13:52:56;7.35;;;1.90;;
53151;SDS011;39234;53.158;6.322;2023-06-04T13:55:22;4.10;;;1.30;;
53151;SDS011;39234;53.158;6.322;2023-06-04T13:57:47;7.53;;;1.48;;
53151;SDS011;39234;53.158;6.322;2023-06-04T14:00:13;7.72;;;1.70;;
53151;SDS011;39234;53.158;6.322;2023-06-04T14:02:40;6.38;;;1.40;;
53151;SDS011;39234;53.158;6.322;2023-06-04T14:05:06;4.43;;;1.63;;
53151;SDS011;39234;53.158;6.322;2023-06-04T14:07:32;5.00;;;1.27;;
53151;SDS011;39234;53.158;6.322;2023-06-04T14:09:58;4.57;;;1.35;;
53151;SDS011;39234;53.158;6.322;2023-06-04T14:12:24;5.63;;;1.48;;
53151;SDS011;39234;53.158;6.322;2023-06-04T14:14:50;4.20;;;1.60;;
53151;SDS011;39234;53.158;6.322;2023-06-04T14:17:16;6.72;;;1.40;;
53151;SDS011;39234;53.158;6.322;2023-06-04T14:19:42;5.28;;;1.45;;
53151;SDS011;39234;53.158;6.322;2023-06-04T14:22:09;4.97;;;1.70;;
53151;SDS011;39234;53.158;6.322;2023-06-04T14:24:37;7.13;;;2.17;;
53151;SDS011;39234;53.158;6.322;2023-06-04T14:27:03;5.25;;;1.65;;
53151;SDS011;39234;53.158;6.322;2023-06-04T14:29:29;4.40;;;1.60;;
53151;SDS011;39234;53.158;6.322;2023-06-04T14:31:55;7.75;;;1.73;;
53151;SDS011;39234;53.158;6.322;2023-06-04T14:34:20;6.43;;;1.25;;
53151;SDS011;39234;53.158;6.322;2023-06-04T14:36:46;5.68;;;1.88;;
53151;SDS011;39234;53.158;6.322;2023-06-04T14:39:12;6.32;;;1.20;;
53151;SDS011;39234;53.158;6.322;2023-06-04T14:41:38;6.15;;;1.33;;
53151;SDS011;39234;53.158;6.322;2023-06-04T14:44:04;11.52;;;3.20;;
53151;SDS011;39234;53.158;6.322;2023-06-04T14:46:30;5.00;;;1.50;;
53151;SDS011;39234;53.158;6.322;2023-06-04T14:48:55;6.75;;;1.67;;
53151;SDS011;39234;53.158;6.322;2023-06-04T14:51:21;7.53;;;1.75;;
53151;SDS011;39234;53.158;6.322;2023-06-04T14:53:47;7.05;;;1.70;;
53151;SDS011;39234;53.158;6.322;2023-06-04T14:56:13;7.65;;;1.90;;
53151;SDS011;39234;53.158;6.322;2023-06-04T14:58:39;6.25;;;1.65;;
53151;SDS011;39234;53.158;6.322;2023-06-04T15:01:05;7.40;;;2.10;;